createdAt,value
2018-07-20T00:00:26.072Z,20.26
2018-07-20T00:01:06.646Z,20.28
2018-07-20T00:01:47.208Z,20.31
2018-07-20T00:02:27.773Z,20.29
2018-07-20T00:03:08.340Z,20.32
2018-07-20T00:03:48.906Z,20.31
2018-07-20T00:04:29.457Z,20.25
2018-07-20T00:05:10.030Z,20.21
2018-07-20T00:05:50.587Z,20.21
2018-07-20T00:06:31.154Z,20.25
2018-07-20T00:07:11.722Z,20.14
2018-07-20T00:07:52.293Z,20.14
2018-07-20T00:08:32.863Z,20.25
2018-07-20T00:09:13.443Z,20.16
2018-07-20T00:09:54.004Z,20.14
2018-07-20T00:10:34.582Z,20.22
2018-07-20T00:11:15.142Z,20.18
2018-07-20T00:11:55.720Z,20.26
2018-07-20T00:12:36.270Z,20.19
2018-07-20T00:13:16.838Z,20.09
2018-07-20T00:13:57.403Z,20.16
2018-07-20T00:14:37.970Z,20.1
2018-07-20T00:15:18.526Z,20.11
2018-07-20T00:15:59.104Z,20.16
2018-07-20T00:16:39.686Z,20.07
2018-07-20T00:17:20.247Z,20.06
2018-07-20T00:18:00.816Z,20.04
2018-07-20T00:18:41.394Z,20.09
2018-07-20T00:19:21.960Z,20.02
2018-07-20T00:20:02.541Z,20.07
2018-07-20T00:20:43.081Z,19.99
2018-07-20T00:21:23.640Z,20.06
2018-07-20T00:22:04.243Z,20.06
2018-07-20T00:22:44.793Z,20.07
2018-07-20T00:23:25.353Z,20.07
2018-07-20T00:24:05.908Z,19.95
2018-07-20T00:24:46.482Z,19.91
2018-07-20T00:25:27.056Z,19.99
2018-07-20T00:26:07.626Z,19.99
2018-07-20T00:26:48.201Z,19.94
2018-07-20T00:27:28.769Z,19.96
2018-07-20T00:28:09.330Z,20.03
2018-07-20T00:28:49.899Z,19.95
2018-07-20T00:29:30.467Z,20.03
2018-07-20T00:30:11.035Z,19.99
2018-07-20T00:30:51.609Z,19.86
2018-07-20T00:31:32.181Z,20.04
2018-07-20T00:32:12.733Z,19.89
2018-07-20T00:32:53.299Z,19.99
2018-07-20T00:33:33.864Z,19.89
2018-07-20T00:34:14.432Z,20
2018-07-20T00:34:54.999Z,19.84
2018-07-20T00:35:35.555Z,19.94
2018-07-20T00:36:16.130Z,19.95
2018-07-20T00:36:56.700Z,19.89
2018-07-20T00:37:37.267Z,19.86
2018-07-20T00:38:17.837Z,19.89
2018-07-20T00:38:58.406Z,19.91
2018-07-20T00:39:38.979Z,19.89
2018-07-20T00:40:19.553Z,19.91
2018-07-20T00:41:00.116Z,19.92
2018-07-20T00:41:40.699Z,19.89
2018-07-20T00:42:21.279Z,19.82
2018-07-20T00:43:01.854Z,19.86
2018-07-20T00:43:42.416Z,19.91
2018-07-20T00:44:22.991Z,19.77
2018-07-20T00:45:03.568Z,19.81
2018-07-20T00:45:44.141Z,19.86
2018-07-20T00:46:24.715Z,19.73
2018-07-20T00:47:05.281Z,19.82
2018-07-20T00:47:45.865Z,19.81
2018-07-20T00:48:26.419Z,19.81
2018-07-20T00:49:06.994Z,19.81
2018-07-20T00:49:47.567Z,19.82
2018-07-20T00:50:28.134Z,19.76
2018-07-20T00:51:08.711Z,19.81
2018-07-20T00:51:49.274Z,19.85
2018-07-20T00:52:29.846Z,19.77
2018-07-20T00:53:10.413Z,19.74
2018-07-20T00:53:50.982Z,19.74
2018-07-20T00:54:31.548Z,19.81
2018-07-20T00:55:12.123Z,19.79
2018-07-20T00:55:52.689Z,19.74
2018-07-20T00:56:33.246Z,19.67
2018-07-20T00:57:13.805Z,19.63
2018-07-20T00:57:54.411Z,19.64
2018-07-20T00:58:34.972Z,19.74
2018-07-20T00:59:15.551Z,19.67
2018-07-20T00:59:56.107Z,19.63
2018-07-20T01:00:36.678Z,19.69
2018-07-20T01:01:17.247Z,19.69
2018-07-20T01:01:57.814Z,19.63
2018-07-20T01:02:38.382Z,19.58
2018-07-20T01:03:18.953Z,19.62
2018-07-20T01:03:59.523Z,19.63
2018-07-20T01:04:40.100Z,19.64
2018-07-20T01:05:20.662Z,19.67
2018-07-20T01:06:01.234Z,19.66
2018-07-20T01:06:41.799Z,19.58
2018-07-20T01:07:22.371Z,19.56
2018-07-20T01:08:02.943Z,19.59
2018-07-20T01:08:43.512Z,19.58
2018-07-20T01:09:24.103Z,19.58
2018-07-20T01:10:04.680Z,19.62
2018-07-20T01:10:45.249Z,19.49
2018-07-20T01:11:25.813Z,19.56
2018-07-20T01:12:06.384Z,19.59
2018-07-20T01:12:46.944Z,19.56
2018-07-20T01:13:27.538Z,19.62
2018-07-20T01:14:08.113Z,19.52
2018-07-20T01:14:48.682Z,19.49
2018-07-20T01:15:29.245Z,19.49
2018-07-20T01:16:09.817Z,19.54
2018-07-20T01:16:50.390Z,19.49
2018-07-20T01:17:30.957Z,19.51
2018-07-20T01:18:11.522Z,19.49
2018-07-20T01:18:52.097Z,19.48
2018-07-20T01:19:32.668Z,19.52
2018-07-20T01:20:13.240Z,19.51
2018-07-20T01:20:53.803Z,19.44
2018-07-20T01:21:34.372Z,19.45
2018-07-20T01:22:14.943Z,19.44
2018-07-20T01:22:55.538Z,19.41
2018-07-20T01:23:36.109Z,19.4
2018-07-20T01:24:16.685Z,19.52
2018-07-20T01:24:57.253Z,19.39
2018-07-20T01:25:37.828Z,19.41
2018-07-20T01:26:18.402Z,19.39
2018-07-20T01:26:58.962Z,19.39
2018-07-20T01:27:39.523Z,19.39
2018-07-20T01:28:20.092Z,19.37
2018-07-20T01:29:00.646Z,19.4
2018-07-20T01:29:41.211Z,19.36
2018-07-20T01:30:21.783Z,19.36
2018-07-20T01:31:02.352Z,19.34
2018-07-20T01:31:42.926Z,19.39
2018-07-20T01:32:23.487Z,19.37
2018-07-20T01:33:04.059Z,19.4
2018-07-20T01:33:44.617Z,19.37
2018-07-20T01:34:25.190Z,19.29
2018-07-20T01:35:05.760Z,19.34
2018-07-20T01:35:46.325Z,19.36
2018-07-20T01:36:26.897Z,19.3
2018-07-20T01:37:07.468Z,19.33
2018-07-20T01:37:48.035Z,19.33
2018-07-20T01:38:28.600Z,19.33
2018-07-20T01:39:09.147Z,19.3
2018-07-20T01:39:49.713Z,19.27
2018-07-20T01:40:30.288Z,19.29
2018-07-20T01:41:10.867Z,19.24
2018-07-20T01:41:51.433Z,19.26
2018-07-20T01:42:31.997Z,19.26
2018-07-20T01:43:12.566Z,19.26
2018-07-20T01:43:53.132Z,19.19
2018-07-20T01:44:33.698Z,19.22
2018-07-20T01:45:14.267Z,19.21
2018-07-20T01:45:54.834Z,19.26
2018-07-20T01:46:35.405Z,19.18
2018-07-20T01:47:15.973Z,19.21
2018-07-20T01:47:56.583Z,19.19
2018-07-20T01:48:37.151Z,19.15
2018-07-20T01:49:17.738Z,19.15
2018-07-20T01:49:58.311Z,19.14
2018-07-20T01:50:38.884Z,19.18
2018-07-20T01:51:19.459Z,19.14
2018-07-20T01:52:00.031Z,19.15
2018-07-20T01:52:40.595Z,19.14
2018-07-20T01:53:21.163Z,19.18
2018-07-20T01:54:01.790Z,19.16
2018-07-20T01:54:42.359Z,19.16
2018-07-20T01:55:22.925Z,19.11
2018-07-20T01:56:03.493Z,19
2018-07-20T01:56:44.069Z,19.08
2018-07-20T01:57:24.641Z,19.04
2018-07-20T01:58:05.213Z,19.08
2018-07-20T01:58:45.785Z,19.09
2018-07-20T01:59:26.348Z,19
2018-07-20T02:00:06.914Z,19.12
2018-07-20T02:00:47.484Z,19.04
2018-07-20T02:01:28.051Z,19.08
2018-07-20T02:02:08.620Z,19.02
2018-07-20T02:02:49.191Z,19.08
2018-07-20T02:03:29.756Z,19
2018-07-20T02:04:10.325Z,19.04
2018-07-20T02:04:50.885Z,19
2018-07-20T02:05:31.460Z,18.96
2018-07-20T02:06:12.028Z,19.02
2018-07-20T02:06:52.580Z,19.07
2018-07-20T02:07:33.159Z,18.98
2018-07-20T02:08:13.723Z,18.9
2018-07-20T02:08:54.287Z,18.96
2018-07-20T02:09:34.858Z,19.07
2018-07-20T02:10:15.421Z,18.93
2018-07-20T02:10:55.996Z,18.92
2018-07-20T02:11:36.555Z,18.95
2018-07-20T02:12:17.115Z,18.86
2018-07-20T02:12:57.680Z,18.86
2018-07-20T02:13:38.255Z,18.9
2018-07-20T02:14:18.816Z,18.89
2018-07-20T02:14:59.386Z,18.86
2018-07-20T02:15:39.995Z,18.89
2018-07-20T02:16:20.544Z,19
2018-07-20T02:17:01.120Z,18.89
2018-07-20T02:17:41.692Z,18.99
2018-07-20T02:18:22.256Z,18.89
2018-07-20T02:19:02.821Z,18.9
2018-07-20T02:19:43.388Z,18.9
2018-07-20T02:20:23.979Z,18.88
2018-07-20T02:21:04.549Z,18.88
2018-07-20T02:21:45.125Z,18.9
2018-07-20T02:22:25.684Z,18.96
2018-07-20T02:23:06.249Z,18.9
2018-07-20T02:23:46.806Z,18.83
2018-07-20T02:24:27.377Z,18.89
2018-07-20T02:25:07.945Z,18.89
2018-07-20T02:25:48.506Z,18.89
2018-07-20T02:26:29.067Z,18.92
2018-07-20T02:27:09.633Z,18.89
2018-07-20T02:27:50.183Z,18.98
2018-07-20T02:28:30.769Z,18.89
2018-07-20T02:29:11.332Z,18.89
2018-07-20T02:29:51.894Z,18.84
2018-07-20T02:30:32.467Z,18.88
2018-07-20T02:31:13.029Z,18.93
2018-07-20T02:31:53.587Z,18.89
2018-07-20T02:32:34.163Z,18.81
2018-07-20T02:33:14.721Z,18.86
2018-07-20T02:33:55.323Z,18.9
2018-07-20T02:34:35.849Z,18.84
2018-07-20T02:35:16.436Z,18.86
2018-07-20T02:35:57.010Z,18.9
2018-07-20T02:36:37.572Z,18.75
2018-07-20T02:37:18.149Z,18.75
2018-07-20T02:37:58.715Z,18.74
2018-07-20T02:38:39.292Z,18.86
2018-07-20T02:39:19.893Z,18.75
2018-07-20T02:40:00.439Z,18.77
2018-07-20T02:40:40.994Z,18.78
2018-07-20T02:41:21.575Z,18.75
2018-07-20T02:42:02.132Z,18.73
2018-07-20T02:42:42.712Z,18.68
2018-07-20T02:43:23.286Z,18.75
2018-07-20T02:44:03.851Z,18.66
2018-07-20T02:44:44.422Z,18.7
2018-07-20T02:45:24.987Z,18.66
2018-07-20T02:46:05.562Z,18.68
2018-07-20T02:46:46.129Z,18.62
2018-07-20T02:47:26.702Z,18.66
2018-07-20T02:48:07.271Z,18.6
2018-07-20T02:48:47.834Z,18.6
2018-07-20T02:49:28.398Z,18.59
2018-07-20T02:50:08.968Z,18.47
2018-07-20T02:50:49.539Z,18.52
2018-07-20T02:51:30.098Z,18.56
2018-07-20T02:52:10.708Z,18.5
2018-07-20T02:52:51.229Z,18.49
2018-07-20T02:53:31.800Z,18.49
2018-07-20T02:54:12.369Z,18.44
2018-07-20T02:54:52.939Z,18.52
2018-07-20T02:55:33.527Z,18.56
2018-07-20T02:56:14.089Z,18.56
2018-07-20T02:56:54.657Z,18.52
2018-07-20T02:57:35.226Z,18.53
2018-07-20T02:58:15.796Z,18.5
2018-07-20T02:58:56.363Z,18.47
2018-07-20T02:59:36.930Z,18.45
2018-07-20T03:00:17.499Z,18.45
2018-07-20T03:00:58.073Z,18.49
2018-07-20T03:01:38.635Z,18.47
2018-07-20T03:02:19.203Z,18.43
2018-07-20T03:02:59.767Z,18.44
2018-07-20T03:03:40.325Z,18.45
2018-07-20T03:04:20.894Z,18.44
2018-07-20T03:05:01.454Z,18.45
2018-07-20T03:05:42.024Z,18.45
2018-07-20T03:06:22.590Z,18.56
2018-07-20T03:07:03.148Z,18.53
2018-07-20T03:07:43.714Z,18.47
2018-07-20T03:08:24.291Z,18.45
2018-07-20T03:09:04.906Z,18.41
2018-07-20T03:09:45.424Z,18.43
2018-07-20T03:10:25.982Z,18.4
2018-07-20T03:11:06.552Z,18.44
2018-07-20T03:11:47.120Z,18.43
2018-07-20T03:12:27.693Z,18.47
2018-07-20T03:13:08.263Z,18.5
2018-07-20T03:13:48.828Z,18.5
2018-07-20T03:14:29.389Z,18.5
2018-07-20T03:15:09.955Z,18.41
2018-07-20T03:15:50.507Z,18.43
2018-07-20T03:16:31.076Z,18.5
2018-07-20T03:17:11.652Z,18.4
2018-07-20T03:17:52.218Z,18.45
2018-07-20T03:18:32.785Z,18.45
2018-07-20T03:19:13.337Z,18.4
2018-07-20T03:19:53.913Z,18.43
2018-07-20T03:20:34.481Z,18.52
2018-07-20T03:21:15.060Z,18.45
2018-07-20T03:21:55.636Z,18.43
2018-07-20T03:22:36.202Z,18.41
2018-07-20T03:23:16.772Z,18.43
2018-07-20T03:23:57.346Z,18.49
2018-07-20T03:24:37.921Z,18.49
2018-07-20T03:25:18.490Z,18.43
2018-07-20T03:25:59.044Z,18.44
2018-07-20T03:26:39.618Z,18.45
2018-07-20T03:27:20.214Z,18.43
2018-07-20T03:28:00.795Z,18.38
2018-07-20T03:28:41.352Z,18.45
2018-07-20T03:29:21.915Z,18.44
2018-07-20T03:30:02.492Z,18.44
2018-07-20T03:30:43.082Z,18.44
2018-07-20T03:31:23.643Z,18.4
2018-07-20T03:32:04.208Z,18.37
2018-07-20T03:32:44.858Z,18.41
2018-07-20T03:33:25.353Z,18.43
2018-07-20T03:34:05.923Z,18.4
2018-07-20T03:34:46.491Z,18.47
2018-07-20T03:35:27.062Z,18.44
2018-07-20T03:36:07.633Z,18.41
2018-07-20T03:36:48.202Z,18.47
2018-07-20T03:37:28.771Z,18.44
2018-07-20T03:38:09.327Z,18.45
2018-07-20T03:38:49.898Z,18.47
2018-07-20T03:39:30.467Z,18.47
2018-07-20T03:40:11.031Z,18.45
2018-07-20T03:40:51.593Z,18.35
2018-07-20T03:41:32.215Z,18.4
2018-07-20T03:42:12.779Z,18.38
2018-07-20T03:42:53.347Z,18.52
2018-07-20T03:43:33.915Z,18.41
2018-07-20T03:44:14.499Z,18.45
2018-07-20T03:44:55.066Z,18.43
2018-07-20T03:45:35.637Z,18.49
2018-07-20T03:46:16.193Z,18.43
2018-07-20T03:46:56.760Z,18.41
2018-07-20T03:47:37.340Z,18.45
2018-07-20T03:48:17.915Z,18.41
2018-07-20T03:48:58.513Z,18.45
2018-07-20T03:49:39.041Z,18.45
2018-07-20T03:50:19.610Z,18.43
2018-07-20T03:51:00.159Z,18.4
2018-07-20T03:51:40.726Z,18.45
2018-07-20T03:52:21.285Z,18.41
2018-07-20T03:53:01.861Z,18.45
2018-07-20T03:53:42.447Z,18.41
2018-07-20T03:54:23.014Z,18.45
2018-07-20T03:55:03.582Z,18.4
2018-07-20T03:55:44.151Z,18.47
2018-07-20T03:56:24.740Z,18.45
2018-07-20T03:57:05.307Z,18.47
2018-07-20T03:57:45.897Z,18.47
2018-07-20T03:58:26.478Z,18.47
2018-07-20T03:59:07.055Z,18.4
2018-07-20T03:59:47.610Z,18.49
2018-07-20T04:00:28.173Z,18.44
2018-07-20T04:01:08.740Z,18.47
2018-07-20T04:01:49.307Z,18.44
2018-07-20T04:02:29.943Z,18.49
2018-07-20T04:03:10.435Z,18.41
2018-07-20T04:03:51.025Z,18.47
2018-07-20T04:04:31.621Z,18.5
2018-07-20T04:05:12.150Z,18.41
2018-07-20T04:05:52.706Z,18.43
2018-07-20T04:06:33.266Z,18.49
2018-07-20T04:07:13.839Z,18.52
2018-07-20T04:07:54.414Z,18.49
2018-07-20T04:08:34.976Z,18.56
2018-07-20T04:09:15.544Z,18.5
2018-07-20T04:09:56.115Z,18.47
2018-07-20T04:10:36.676Z,18.53
2018-07-20T04:11:17.245Z,18.62
2018-07-20T04:11:57.809Z,18.55
2018-07-20T04:12:38.384Z,18.5
2018-07-20T04:13:18.955Z,18.44
2018-07-20T04:13:59.511Z,18.53
2018-07-20T04:14:40.079Z,18.49
2018-07-20T04:15:20.651Z,18.45
2018-07-20T04:16:01.221Z,18.58
2018-07-20T04:16:41.792Z,18.59
2018-07-20T04:17:22.363Z,18.63
2018-07-20T04:18:02.927Z,18.5
2018-07-20T04:18:43.500Z,18.5
2018-07-20T04:19:24.066Z,18.55
2018-07-20T04:20:04.677Z,18.56
2018-07-20T04:20:45.250Z,18.6
2018-07-20T04:21:25.806Z,18.65
2018-07-20T04:22:06.376Z,18.65
2018-07-20T04:22:46.935Z,18.58
2018-07-20T04:23:27.511Z,18.65
2018-07-20T04:24:08.081Z,18.71
2018-07-20T04:24:48.641Z,18.66
2018-07-20T04:25:29.212Z,18.68
2018-07-20T04:26:09.779Z,18.66
2018-07-20T04:26:50.341Z,18.63
2018-07-20T04:27:30.908Z,18.62
2018-07-20T04:28:11.547Z,18.66
2018-07-20T04:28:52.143Z,18.74
2018-07-20T04:29:32.701Z,18.7
2018-07-20T04:30:13.272Z,18.66
2018-07-20T04:30:53.827Z,18.71
2018-07-20T04:31:34.391Z,18.73
2018-07-20T04:32:14.970Z,18.65
2018-07-20T04:32:55.543Z,18.7
2018-07-20T04:33:36.117Z,18.66
2018-07-20T04:34:16.684Z,18.71
2018-07-20T04:34:57.262Z,18.7
2018-07-20T04:35:37.826Z,18.74
2018-07-20T04:36:18.408Z,18.74
2018-07-20T04:36:58.962Z,18.75
2018-07-20T04:37:39.533Z,18.7
2018-07-20T04:38:20.101Z,18.77
2018-07-20T04:39:00.674Z,18.77
2018-07-20T04:39:41.247Z,18.81
2018-07-20T04:40:21.819Z,18.88
2018-07-20T04:41:02.386Z,18.81
2018-07-20T04:41:42.959Z,18.88
2018-07-20T04:42:23.522Z,18.84
2018-07-20T04:43:04.088Z,18.88
2018-07-20T04:43:44.693Z,18.92
2018-07-20T04:44:25.231Z,18.9
2018-07-20T04:45:05.802Z,18.81
2018-07-20T04:45:46.369Z,18.99
2018-07-20T04:46:26.933Z,18.96
2018-07-20T04:47:07.501Z,18.95
2018-07-20T04:47:48.073Z,18.96
2018-07-20T04:48:28.644Z,18.96
2018-07-20T04:49:09.200Z,18.99
2018-07-20T04:49:49.792Z,18.92
2018-07-20T04:50:30.339Z,18.95
2018-07-20T04:51:10.922Z,18.93
2018-07-20T04:51:51.489Z,18.99
2018-07-20T04:52:32.053Z,19.08
2018-07-20T04:53:12.613Z,18.95
2018-07-20T04:53:53.184Z,19.08
2018-07-20T04:54:33.751Z,19.04
2018-07-20T04:55:14.320Z,19.07
2018-07-20T04:55:54.892Z,19.08
2018-07-20T04:56:35.458Z,19.02
2018-07-20T04:57:16.038Z,19.15
2018-07-20T04:57:56.608Z,19.14
2018-07-20T04:58:37.180Z,19.12
2018-07-20T04:59:17.751Z,19.15
2018-07-20T04:59:58.327Z,19.16
2018-07-20T05:00:38.892Z,19.26
2018-07-20T05:01:19.452Z,19.24
2018-07-20T05:02:00.028Z,19.16
2018-07-20T05:02:40.599Z,19.27
2018-07-20T05:03:21.169Z,19.24
2018-07-20T05:04:01.738Z,19.27
2018-07-20T05:04:42.304Z,19.27
2018-07-20T05:05:22.876Z,19.26
2018-07-20T05:06:03.440Z,19.3
2018-07-20T05:06:44.019Z,19.21
2018-07-20T05:07:24.586Z,19.33
2018-07-20T05:08:05.148Z,19.41
2018-07-20T05:08:45.727Z,19.4
2018-07-20T05:09:26.277Z,19.36
2018-07-20T05:10:06.840Z,19.39
2018-07-20T05:10:47.437Z,19.37
2018-07-20T05:11:28.117Z,19.44
2018-07-20T05:12:08.571Z,19.49
2018-07-20T05:12:49.179Z,19.45
2018-07-20T05:13:29.743Z,19.44
2018-07-20T05:14:10.316Z,19.47
2018-07-20T05:14:50.879Z,19.54
2018-07-20T05:15:31.450Z,19.48
2018-07-20T05:16:12.018Z,19.49
2018-07-20T05:16:52.586Z,19.56
2018-07-20T05:17:33.147Z,19.52
2018-07-20T05:18:13.729Z,19.62
2018-07-20T05:18:54.278Z,19.66
2018-07-20T05:19:35.023Z,19.62
2018-07-20T05:20:15.639Z,19.59
2018-07-20T05:20:56.179Z,19.64
2018-07-20T05:21:36.742Z,19.74
2018-07-20T05:22:17.424Z,19.7
2018-07-20T05:22:58.033Z,19.67
2018-07-20T05:23:38.591Z,19.73
2018-07-20T05:24:19.401Z,19.7
2018-07-20T05:24:59.995Z,19.76
2018-07-20T05:25:40.587Z,19.82
2018-07-20T05:26:21.167Z,19.77
2018-07-20T05:27:01.800Z,19.71
2018-07-20T05:27:42.417Z,19.82
2018-07-20T05:28:22.984Z,19.91
2018-07-20T05:29:03.544Z,19.94
2018-07-20T05:29:44.197Z,19.85
2018-07-20T05:30:24.757Z,19.88
2018-07-20T05:31:05.389Z,19.94
2018-07-20T05:31:45.941Z,20.07
2018-07-20T05:32:26.544Z,19.94
2018-07-20T05:33:07.130Z,20.06
2018-07-20T05:33:47.699Z,20.13
2018-07-20T05:34:28.295Z,20.09
2018-07-20T05:35:08.880Z,20.16
2018-07-20T05:35:49.441Z,20.21
2018-07-20T05:36:30.036Z,20.29
2018-07-20T05:37:10.628Z,20.29
2018-07-20T05:37:51.201Z,20.4
2018-07-20T05:38:31.893Z,20.4
2018-07-20T05:39:12.465Z,20.48
2018-07-20T05:39:53.081Z,20.52
2018-07-20T05:40:33.613Z,20.59
2018-07-20T05:41:14.284Z,20.67
2018-07-20T05:41:55.094Z,20.67
2018-07-20T05:42:35.752Z,20.82
2018-07-20T05:43:16.391Z,20.84
2018-07-20T05:43:57.196Z,20.92
2018-07-20T05:44:37.850Z,20.82
2018-07-20T05:45:18.419Z,21.06
2018-07-20T05:45:58.988Z,21.11
2018-07-20T05:46:39.587Z,21.09
2018-07-20T05:47:20.156Z,21.2
2018-07-20T05:48:00.720Z,21.29
2018-07-20T05:48:41.294Z,21.36
2018-07-20T05:49:21.907Z,21.43
2018-07-20T05:50:02.477Z,21.5
2018-07-20T05:50:43.053Z,21.67
2018-07-20T05:51:23.637Z,21.73
2018-07-20T05:52:04.207Z,21.77
2018-07-20T05:52:44.770Z,21.92
2018-07-20T05:53:25.347Z,22
2018-07-20T05:54:05.967Z,22.18
2018-07-20T05:54:46.499Z,22.17
2018-07-20T05:55:27.063Z,22.3
2018-07-20T05:56:07.635Z,22.36
2018-07-20T05:56:48.243Z,22.43
2018-07-20T05:57:28.820Z,22.43
2018-07-20T05:58:09.411Z,22.55
2018-07-20T05:58:49.976Z,22.54
2018-07-20T05:59:30.548Z,22.65
2018-07-20T06:00:11.165Z,22.66
2018-07-20T06:00:51.731Z,22.78
2018-07-20T06:01:32.312Z,22.84
2018-07-20T06:02:12.882Z,22.9
2018-07-20T06:02:53.463Z,23.02
2018-07-20T06:03:34.051Z,23.02
2018-07-20T06:04:14.804Z,23.1
2018-07-20T06:04:55.328Z,23.18
2018-07-20T06:05:35.954Z,23.17
2018-07-20T06:06:16.474Z,23.12
2018-07-20T06:06:57.030Z,23.17
2018-07-20T06:07:37.609Z,23.13
2018-07-20T06:08:18.182Z,23.13
2018-07-20T06:08:58.754Z,23.15
2018-07-20T06:09:39.326Z,23.23
2018-07-20T06:10:19.908Z,23.13
2018-07-20T06:11:00.528Z,23.28
2018-07-20T06:11:41.099Z,23.25
2018-07-20T06:12:21.858Z,23.37
2018-07-20T06:13:02.458Z,23.34
2018-07-20T06:13:43.019Z,23.37
2018-07-20T06:14:23.589Z,23.44
2018-07-20T06:15:04.157Z,23.43
2018-07-20T06:15:44.719Z,23.48
2018-07-20T06:16:25.286Z,23.46
2018-07-20T06:17:05.856Z,23.36
2018-07-20T06:17:46.485Z,23.39
2018-07-20T06:18:27.041Z,23.39
2018-07-20T06:19:07.712Z,23.24
2018-07-20T06:19:48.292Z,23.27
2018-07-20T06:20:28.863Z,23.25
2018-07-20T06:21:09.488Z,23.39
2018-07-20T06:21:50.037Z,23.46
2018-07-20T06:22:30.584Z,23.51
2018-07-20T06:23:11.223Z,23.59
2018-07-20T06:23:51.825Z,23.68
2018-07-20T06:24:32.376Z,23.8
2018-07-20T06:25:12.947Z,23.76
2018-07-20T06:25:53.512Z,23.84
2018-07-20T06:26:34.072Z,23.88
2018-07-20T06:27:14.632Z,23.92
2018-07-20T06:27:55.214Z,24.02
2018-07-20T06:28:35.769Z,23.99
2018-07-20T06:29:16.358Z,24.05
2018-07-20T06:29:56.932Z,24.05
2018-07-20T06:30:37.501Z,24.13
2018-07-20T06:31:18.063Z,24.1
2018-07-20T06:31:58.647Z,24.13
2018-07-20T06:32:39.218Z,24.14
2018-07-20T06:33:19.796Z,24.14
2018-07-20T06:34:00.344Z,24.11
2018-07-20T06:34:40.916Z,24.06
2018-07-20T06:35:21.488Z,24.1
2018-07-20T06:36:02.060Z,24.17
2018-07-20T06:36:42.623Z,24.14
2018-07-20T06:37:23.210Z,24.26
2018-07-20T06:38:03.809Z,24.2
2018-07-20T06:38:44.394Z,24.33
2018-07-20T06:39:24.961Z,24.47
2018-07-20T06:40:05.558Z,24.51
2018-07-20T06:40:46.195Z,24.54
2018-07-20T06:41:26.701Z,24.66
2018-07-20T06:42:07.303Z,24.65
2018-07-20T06:42:47.858Z,24.65
2018-07-20T06:43:28.439Z,24.7
2018-07-20T06:44:09.234Z,24.69
2018-07-20T06:44:49.866Z,24.85
2018-07-20T06:45:30.832Z,24.86
2018-07-20T06:46:11.221Z,24.8
2018-07-20T06:46:51.842Z,24.91
2018-07-20T06:47:32.411Z,25.06
2018-07-20T06:48:13.047Z,24.98
2018-07-20T06:48:53.832Z,25.04
2018-07-20T06:49:34.436Z,25.11
2018-07-20T06:50:15.001Z,25.13
2018-07-20T06:50:55.804Z,25.16
2018-07-20T06:51:36.486Z,25.23
2018-07-20T06:52:17.074Z,25.31
2018-07-20T06:52:57.651Z,25.21
2018-07-20T06:53:38.219Z,25.33
2018-07-20T06:54:18.788Z,25.43
2018-07-20T06:54:59.434Z,25.43
2018-07-20T06:55:40.018Z,25.5
2018-07-20T06:56:20.585Z,25.44
2018-07-20T06:57:01.173Z,25.51
2018-07-20T06:57:41.739Z,25.55
2018-07-20T06:58:22.559Z,25.65
2018-07-20T06:59:03.115Z,25.68
2018-07-20T06:59:43.686Z,25.7
2018-07-20T07:00:24.422Z,25.68
2018-07-20T07:01:05.005Z,25.72
2018-07-20T07:01:45.576Z,25.81
2018-07-20T07:02:26.153Z,25.84
2018-07-20T07:03:06.735Z,25.93
2018-07-20T07:03:47.302Z,25.88
2018-07-20T07:04:28.040Z,25.95
2018-07-20T07:05:08.648Z,25.9
2018-07-20T07:05:49.253Z,25.91
2018-07-20T07:06:29.817Z,25.99
2018-07-20T07:07:10.391Z,26.02
2018-07-20T07:07:50.971Z,26.03
2018-07-20T07:08:31.547Z,26.03
2018-07-20T07:09:12.124Z,26.06
2018-07-20T07:09:52.698Z,26.09
2018-07-20T07:10:33.305Z,26.1
2018-07-20T07:11:13.879Z,26.15
2018-07-20T07:11:54.445Z,26.1
2018-07-20T07:12:35.029Z,26.23
2018-07-20T07:13:15.592Z,26.15
2018-07-20T07:13:56.172Z,26.25
2018-07-20T07:14:36.745Z,26.23
2018-07-20T07:15:17.430Z,26.26
2018-07-20T07:15:57.999Z,26.36
2018-07-20T07:16:38.572Z,26.36
2018-07-20T07:17:19.154Z,26.47
2018-07-20T07:17:59.727Z,26.51
2018-07-20T07:18:40.304Z,26.47
2018-07-20T07:19:20.878Z,26.44
2018-07-20T07:20:01.448Z,26.4
2018-07-20T07:20:42.031Z,26.26
2018-07-20T07:21:22.613Z,26.29
2018-07-20T07:22:03.196Z,26.22
2018-07-20T07:22:43.795Z,26.29
2018-07-20T07:23:24.341Z,26.29
2018-07-20T07:24:04.949Z,26.34
2018-07-20T07:24:45.538Z,26.41
2018-07-20T07:25:26.139Z,26.34
2018-07-20T07:26:06.739Z,26.44
2018-07-20T07:26:47.321Z,26.48
2018-07-20T07:27:27.898Z,26.45
2018-07-20T07:28:08.472Z,26.56
2018-07-20T07:28:49.041Z,26.56
2018-07-20T07:29:29.668Z,26.66
2018-07-20T07:30:10.268Z,26.68
2018-07-20T07:30:50.839Z,26.63
2018-07-20T07:31:31.422Z,26.58
2018-07-20T07:32:12.006Z,26.48
2018-07-20T07:32:52.580Z,26.37
2018-07-20T07:33:33.160Z,26.22
2018-07-20T07:34:13.725Z,26.21
2018-07-20T07:34:54.301Z,26.21
2018-07-20T07:35:34.907Z,26.19
2018-07-20T07:36:15.487Z,26.18
2018-07-20T07:36:56.131Z,26.07
2018-07-20T07:37:36.824Z,26.21
2018-07-20T07:38:17.407Z,26.21
2018-07-20T07:38:57.986Z,26.19
2018-07-20T07:39:38.562Z,26.29
2018-07-20T07:40:19.133Z,26.45
2018-07-20T07:40:59.741Z,26.4
2018-07-20T07:41:40.309Z,26.51
2018-07-20T07:42:20.901Z,26.62
2018-07-20T07:43:01.478Z,26.71
2018-07-20T07:43:42.056Z,26.71
2018-07-20T07:44:22.637Z,26.81
2018-07-20T07:45:03.230Z,26.78
2018-07-20T07:45:43.798Z,26.85
2018-07-20T07:46:24.373Z,26.92
2018-07-20T07:47:04.947Z,26.95
2018-07-20T07:47:45.537Z,27.02
2018-07-20T07:48:26.112Z,27
2018-07-20T07:49:06.689Z,27.1
2018-07-20T07:49:47.273Z,27.1
2018-07-20T07:50:27.854Z,27.14
2018-07-20T07:51:08.443Z,27.12
2018-07-20T07:51:49.033Z,27.14
2018-07-20T07:52:29.615Z,27.11
2018-07-20T07:53:10.193Z,27.11
2018-07-20T07:53:50.779Z,27.03
2018-07-20T07:54:31.358Z,27
2018-07-20T07:55:11.933Z,26.97
2018-07-20T07:55:52.515Z,26.93
2018-07-20T07:56:33.095Z,26.78
2018-07-20T07:57:13.678Z,26.75
2018-07-20T07:57:54.257Z,26.71
2018-07-20T07:58:34.841Z,26.73
2018-07-20T07:59:15.421Z,26.74
2018-07-20T07:59:56.009Z,26.77
2018-07-20T08:00:36.586Z,26.73
2018-07-20T08:01:17.168Z,26.81
2018-07-20T08:01:57.745Z,26.8
2018-07-20T08:02:38.331Z,26.78
2018-07-20T08:03:18.905Z,26.83
2018-07-20T08:03:59.480Z,26.84
2018-07-20T08:04:40.065Z,26.81
2018-07-20T08:05:20.645Z,26.83
2018-07-20T08:06:01.228Z,26.83
2018-07-20T08:06:41.824Z,26.8
2018-07-20T08:07:22.383Z,26.78
2018-07-20T08:08:02.957Z,26.81
2018-07-20T08:08:43.528Z,26.71
2018-07-20T08:09:24.098Z,26.85
2018-07-20T08:10:04.838Z,26.78
2018-07-20T08:10:45.274Z,26.74
2018-07-20T08:11:25.933Z,26.73
2018-07-20T08:12:06.479Z,26.73
2018-07-20T08:12:47.068Z,26.68
2018-07-20T08:13:27.630Z,26.48
2018-07-20T08:14:08.211Z,26.45
2018-07-20T08:14:48.797Z,26.43
2018-07-20T08:15:29.375Z,26.26
2018-07-20T08:16:09.959Z,26.29
2018-07-20T08:16:50.537Z,26.1
2018-07-20T08:17:31.124Z,26.15
2018-07-20T08:18:11.720Z,26.21
2018-07-20T08:18:52.294Z,26.22
2018-07-20T08:19:32.867Z,26.21
2018-07-20T08:20:13.452Z,26.15
2018-07-20T08:20:54.029Z,26.23
2018-07-20T08:21:34.622Z,26.22
2018-07-20T08:22:15.195Z,26.23
2018-07-20T08:22:55.827Z,26.23
2018-07-20T08:23:36.335Z,26.28
2018-07-20T08:24:16.929Z,26.47
2018-07-20T08:24:57.511Z,26.47
2018-07-20T08:25:38.104Z,26.58
2018-07-20T08:26:18.656Z,26.71
2018-07-20T08:26:59.233Z,26.78
2018-07-20T08:27:39.811Z,26.75
2018-07-20T08:28:20.391Z,26.8
2018-07-20T08:29:00.967Z,26.84
2018-07-20T08:29:41.544Z,26.85
2018-07-20T08:30:22.111Z,26.92
2018-07-20T08:31:02.683Z,26.93
2018-07-20T08:31:43.246Z,26.96
2018-07-20T08:32:23.813Z,26.95
2018-07-20T08:33:04.392Z,26.96
2018-07-20T08:33:44.967Z,27.02
2018-07-20T08:34:25.549Z,27.03
2018-07-20T08:35:06.112Z,27.05
2018-07-20T08:35:46.686Z,27.03
2018-07-20T08:36:27.267Z,27.05
2018-07-20T08:37:07.843Z,27.03
2018-07-20T08:37:48.414Z,27.03
2018-07-20T08:38:28.996Z,27.07
2018-07-20T08:39:09.586Z,27.02
2018-07-20T08:39:50.153Z,26.92
2018-07-20T08:40:30.720Z,26.92
2018-07-20T08:41:11.326Z,26.83
2018-07-20T08:41:51.863Z,26.89
2018-07-20T08:42:32.444Z,26.8
2018-07-20T08:43:13.021Z,26.89
2018-07-20T08:43:53.586Z,26.93
2018-07-20T08:44:34.164Z,26.93